Madison, CA (95653)

3:57 AM PDT on September 15, 2014 (GMT -0700)
Southwest Woodland | Change Station
CLOSE
Current Station
Personal Weather Station
Location: Woodland, CA
Elevation: 60 ft
Nearby Weather Stations

Elev 60 ft 38.66 °N, 121.80 °W | Updated 10 minutes ago

Partly Cloudy
Partly Cloudy
62.7 °F
Feels Like 62.7 °F
N
0.0
Wind Variable Wind from ESE
Gusts 2.0 mph

Today
High -- | Low -- °F
--% Chance of Precip.
Yesterday
High -- | Low -- °F
Precip. -- in
6:49 AM 7:15 PM
Waning Gibbous, 56% visible
Pressure 29.77 in
Visibility 10.0 miles
Clouds Few 12000 ft
Dew Point 51 °F
Humidity 66%
Rainfall 0.00 in
Snow Depth Not available.
UV 0 out of 12
Pollen 6.90 out of 12
Ozone Good
PM2.5 Good
Flu Activity Not available.
METAR KEDU 151035Z AUTO 00000KT 10SM FEW120 18/11 A2977 RMK AO1

More Conditions Fewer Conditions

Pressure 29.77 in
Visibility 10.0 miles
Clouds Few 12000 ft
Dew Point 51 °F
Humidity 66%
Rainfall 0.00 in
Snow Depth Not available.
UV 0 out of 12
Pollen 6.90 out of 12
Ozone Good
PM2.5 Good
Flu Activity Not available.
METAR KEDU 151035Z AUTO 00000KT 10SM FEW120 18/11 A2977 RMK AO1

More Conditions Fewer Conditions

10-Day Weather Forecast

Almanac

Astronomy

Sep. 15, 2014 Rise Set
Actual Time 6:49 AM PDT 7:15 PM PDT
Civil Twilight 6:22 AM PDT 7:42 PM PDT
Nautical Twilight 5:51 AM PDT 8:13 PM PDT
Astronomical Twilight 5:19 AM PDT 8:45 PM PDT
Moon No Moon Rise 1:50 PM PDT
Length of Visible Light 13h 19m
Length of Day
12h 26m
Tomorrow will be 2m 29s shorter.
Waning Gibbous, 56% of the Moon is Illuminated
Today
Waning Gibbous
Sep 15
Last Quarter
Sep 24
New
Oct 1
First Quarter
Oct 8
Full

Today's Extremes

State Highs State Lows

Community

WunderPhotos

Upload Photos

1,753,428 photos uploaded!

Nearby

Air Quality

  Air Quality AQ Index Pollutant
Yesterday Good
PM2.5
Yesterday Good
OZONE
Current Good
PM2.5
Current Good
OZONE
Monday Good
OZONE
Tuesday Good
OZONE
Wednesday Good
OZONE
Thursday Good
OZONE
Friday Good
OZONE

Snow Depth

Station Depth Elevation
CSS Lab 3 in 6900 ft
Echo Peak 0 in 7800 ft
Tahoe City Cross 0 in 6750 ft
Fallen Leaf 0 in 6300 ft
Forestdale Creek 0 in 8029 ft

Earthquake Activity

City Distance Mag. Time & Date
Covelo, California 97 miles 3.5 1:17 PM PDT
2014-09-14
Cobb, California 45 miles 2.8 11:07 AM PDT
2014-09-14
Minimum magnitude displayed is 2.5.

Coastal Water Temperatures

Place Temperature
No Stations Reporting

Nearby Weather Stations